sensor_id;sensor_type;location;lat;lon;timestamp;temperature;humidity
72650;SHT31;61467;50.674;4.618;2022-12-18T00:00:39;-0.88;70.39
72650;SHT31;61467;50.674;4.618;2022-12-18T00:03:08;-0.89;70.39
72650;SHT31;61467;50.674;4.618;2022-12-18T00:05:34;-0.95;70.48
72650;SHT31;61467;50.674;4.618;2022-12-18T00:08:01;-1.12;70.34
72650;SHT31;61467;50.674;4.618;2022-12-18T00:10:28;-1.13;70.66
72650;SHT31;61467;50.674;4.618;2022-12-18T00:12:56;-1.17;70.51
72650;SHT31;61467;50.674;4.618;2022-12-18T00:15:22;-1.17;70.74
72650;SHT31;61467;50.674;4.618;2022-12-18T00:17:49;-1.17;70.66
72650;SHT31;61467;50.674;4.618;2022-12-18T00:20:17;-1.10;70.30
72650;SHT31;61467;50.674;4.618;2022-12-18T00:22:50;-1.16;69.90
72650;SHT31;61467;50.674;4.618;2022-12-18T00:25:17;-1.10;69.71
72650;SHT31;61467;50.674;4.618;2022-12-18T00:27:44;-1.10;69.50
72650;SHT31;61467;50.674;4.618;2022-12-18T00:30:11;-1.10;69.34
72650;SHT31;61467;50.674;4.618;2022-12-18T00:32:38;-1.02;69.17
72650;SHT31;61467;50.674;4.618;2022-12-18T00:35:08;-1.07;69.07
72650;SHT31;61467;50.674;4.618;2022-12-18T00:37:36;-1.09;68.97
72650;SHT31;61467;50.674;4.618;2022-12-18T00:40:03;-1.06;68.86
72650;SHT31;61467;50.674;4.618;2022-12-18T00:42:30;-1.04;68.56
72650;SHT31;61467;50.674;4.618;2022-12-18T00:45:14;-1.03;68.54
72650;SHT31;61467;50.674;4.618;2022-12-18T00:47:41;-1.04;68.41
72650;SHT31;61467;50.674;4.618;2022-12-18T00:50:08;-1.00;68.27
72650;SHT31;61467;50.674;4.618;2022-12-18T00:52:37;-0.99;68.03
72650;SHT31;61467;50.674;4.618;2022-12-18T00:55:04;-1.07;67.88
72650;SHT31;61467;50.674;4.618;2022-12-18T00:57:31;-1.10;67.61
72650;SHT31;61467;50.674;4.618;2022-12-18T00:59:58;-1.10;67.49
72650;SHT31;61467;50.674;4.618;2022-12-18T01:02:25;-1.04;67.53
72650;SHT31;61467;50.674;4.618;2022-12-18T01:04:51;-1.07;67.57
72650;SHT31;61467;50.674;4.618;2022-12-18T01:07:18;-1.04;67.40
72650;SHT31;61467;50.674;4.618;2022-12-18T01:09:46;-1.00;67.57
72650;SHT31;61467;50.674;4.618;2022-12-18T01:12:13;-1.06;67.56
72650;SHT31;61467;50.674;4.618;2022-12-18T01:14:39;-1.09;67.81
72650;SHT31;61467;50.674;4.618;2022-12-18T01:17:06;-1.12;67.45
72650;SHT31;61467;50.674;4.618;2022-12-18T01:19:33;-1.16;67.58
72650;SHT31;61467;50.674;4.618;2022-12-18T01:22:00;-1.20;67.56
72650;SHT31;61467;50.674;4.618;2022-12-18T01:24:26;-1.20;67.58
72650;SHT31;61467;50.674;4.618;2022-12-18T01:26:54;-1.20;67.41
72650;SHT31;61467;50.674;4.618;2022-12-18T01:29:22;-1.17;67.39
72650;SHT31;61467;50.674;4.618;2022-12-18T01:31:49;-1.26;67.35
72650;SHT31;61467;50.674;4.618;2022-12-18T01:34:16;-1.29;67.50
72650;SHT31;61467;50.674;4.618;2022-12-18T01:36:43;-1.26;67.52
72650;SHT31;61467;50.674;4.618;2022-12-18T01:39:11;-1.19;67.38
72650;SHT31;61467;50.674;4.618;2022-12-18T01:41:39;-1.20;67.24
72650;SHT31;61467;50.674;4.618;2022-12-18T01:44:54;-1.16;67.10
72650;SHT31;61467;50.674;4.618;2022-12-18T01:47:24;-1.21;67.44
72650;SHT31;61467;50.674;4.618;2022-12-18T01:49:51;-1.26;67.64
72650;SHT31;61467;50.674;4.618;2022-12-18T01:52:19;-1.24;67.59
72650;SHT31;61467;50.674;4.618;2022-12-18T01:54:47;-1.31;68.00
72650;SHT31;61467;50.674;4.618;2022-12-18T01:57:16;-1.31;68.02
72650;SHT31;61467;50.674;4.618;2022-12-18T01:59:45;-1.36;68.04
72650;SHT31;61467;50.674;4.618;2022-12-18T02:02:15;-1.29;67.36
72650;SHT31;61467;50.674;4.618;2022-12-18T02:04:43;-1.41;67.60
72650;SHT31;61467;50.674;4.618;2022-12-18T02:07:15;-1.44;68.05
72650;SHT31;61467;50.674;4.618;2022-12-18T02:09:47;-1.44;68.00
72650;SHT31;61467;50.674;4.618;2022-12-18T02:12:18;-1.46;67.67
72650;SHT31;61467;50.674;4.618;2022-12-18T02:14:51;-1.44;67.54
72650;SHT31;61467;50.674;4.618;2022-12-18T02:17:28;-1.40;67.34
72650;SHT31;61467;50.674;4.618;2022-12-18T02:20:03;-1.40;67.34
72650;SHT31;61467;50.674;4.618;2022-12-18T02:22:40;-1.40;67.43
72650;SHT31;61467;50.674;4.618;2022-12-18T02:25:23;-1.40;67.36
72650;SHT31;61467;50.674;4.618;2022-12-18T02:27:52;-1.37;67.36
72650;SHT31;61467;50.674;4.618;2022-12-18T02:30:21;-1.37;67.55
72650;SHT31;61467;50.674;4.618;2022-12-18T02:32:50;-1.39;67.12
72650;SHT31;61467;50.674;4.618;2022-12-18T02:35:22;-1.46;67.16
72650;SHT31;61467;50.674;4.618;2022-12-18T02:37:49;-1.47;67.34
72650;SHT31;61467;50.674;4.618;2022-12-18T02:40:18;-1.51;67.23
72650;SHT31;61467;50.674;4.618;2022-12-18T02:42:45;-1.60;67.25
72650;SHT31;61467;50.674;4.618;2022-12-18T02:45:13;-1.64;67.62
72650;SHT31;61467;50.674;4.618;2022-12-18T02:47:42;-1.61;67.51
72650;SHT31;61467;50.674;4.618;2022-12-18T02:50:17;-1.61;67.40
72650;SHT31;61467;50.674;4.618;2022-12-18T02:52:54;-1.65;67.60
72650;SHT31;61467;50.674;4.618;2022-12-18T02:55:30;-1.68;68.29
72650;SHT31;61467;50.674;4.618;2022-12-18T02:58:03;-1.77;68.06
72650;SHT31;61467;50.674;4.618;2022-12-18T03:00:38;-1.82;67.87
72650;SHT31;61467;50.674;4.618;2022-12-18T03:03:10;-1.89;67.92
72650;SHT31;61467;50.674;4.618;2022-12-18T03:05:41;-1.98;67.81
72650;SHT31;61467;50.674;4.618;2022-12-18T03:08:14;-2.05;67.71
72650;SHT31;61467;50.674;4.618;2022-12-18T03:10:47;-2.13;68.07
72650;SHT31;61467;50.674;4.618;2022-12-18T03:13:18;-2.21;68.07
72650;SHT31;61467;50.674;4.618;2022-12-18T03:15:51;-2.25;68.43
72650;SHT31;61467;50.674;4.618;2022-12-18T03:18:22;-2.26;68.90
72650;SHT31;61467;50.674;4.618;2022-12-18T03:20:51;-2.18;68.89
72650;SHT31;61467;50.674;4.618;2022-12-18T03:23:22;-2.13;69.02
72650;SHT31;61467;50.674;4.618;2022-12-18T03:25:52;-2.25;68.69
72650;SHT31;61467;50.674;4.618;2022-12-18T03:28:22;-2.19;68.88
72650;SHT31;61467;50.674;4.618;2022-12-18T03:30:53;-2.18;68.67
72650;SHT31;61467;50.674;4.618;2022-12-18T03:33:26;-2.21;68.51
72650;SHT31;61467;50.674;4.618;2022-12-18T03:35:54;-2.28;68.64
72650;SHT31;61467;50.674;4.618;2022-12-18T03:38:20;-2.26;68.47
72650;SHT31;61467;50.674;4.618;2022-12-18T03:40:56;-2.19;68.51
72650;SHT31;61467;50.674;4.618;2022-12-18T03:43:34;-2.26;68.40
72650;SHT31;61467;50.674;4.618;2022-12-18T03:46:09;-2.37;68.16
72650;SHT31;61467;50.674;4.618;2022-12-18T03:48:42;-2.42;67.97
72650;SHT31;61467;50.674;4.618;2022-12-18T03:51:14;-2.44;67.99
72650;SHT31;61467;50.674;4.618;2022-12-18T03:53:48;-2.43;68.29
72650;SHT31;61467;50.674;4.618;2022-12-18T03:56:16;-2.50;68.13
72650;SHT31;61467;50.674;4.618;2022-12-18T03:58:44;-2.53;68.32
72650;SHT31;61467;50.674;4.618;2022-12-18T04:01:14;-2.42;68.59
72650;SHT31;61467;50.674;4.618;2022-12-18T04:03:42;-2.32;68.59
72650;SHT31;61467;50.674;4.618;2022-12-18T04:06:11;-2.33;68.31
72650;SHT31;61467;50.674;4.618;2022-12-18T04:08:38;-2.32;68.46
72650;SHT31;61467;50.674;4.618;2022-12-18T04:11:05;-2.36;68.56
72650;SHT31;61467;50.674;4.618;2022-12-18T04:13:35;-2.42;68.35
72650;SHT31;61467;50.674;4.618;2022-12-18T04:16:02;-2.37;68.14
72650;SHT31;61467;50.674;4.618;2022-12-18T04:18:30;-2.37;68.30
72650;SHT31;61467;50.674;4.618;2022-12-18T04:20:57;-2.42;68.34
72650;SHT31;61467;50.674;4.618;2022-12-18T04:23:24;-2.39;68.14
72650;SHT31;61467;50.674;4.618;2022-12-18T04:25:51;-2.37;68.08
72650;SHT31;61467;50.674;4.618;2022-12-18T04:28:17;-2.42;67.84
72650;SHT31;61467;50.674;4.618;2022-12-18T04:30:44;-2.42;68.21
72650;SHT31;61467;50.674;4.618;2022-12-18T04:33:13;-2.42;67.83
72650;SHT31;61467;50.674;4.618;2022-12-18T04:35:42;-2.53;67.88
72650;SHT31;61467;50.674;4.618;2022-12-18T04:38:08;-2.53;67.97
72650;SHT31;61467;50.674;4.618;2022-12-18T04:40:36;-2.61;67.99
72650;SHT31;61467;50.674;4.618;2022-12-18T04:43:03;-2.56;68.10
72650;SHT31;61467;50.674;4.618;2022-12-18T04:45:30;-2.60;67.81
72650;SHT31;61467;50.674;4.618;2022-12-18T04:47:57;-2.67;67.52
72650;SHT31;61467;50.674;4.618;2022-12-18T04:50:24;-2.75;67.27
72650;SHT31;61467;50.674;4.618;2022-12-18T04:52:52;-2.81;67.50
72650;SHT31;61467;50.674;4.618;2022-12-18T04:55:19;-2.89;67.93
72650;SHT31;61467;50.674;4.618;2022-12-18T04:57:46;-2.92;68.12
72650;SHT31;61467;50.674;4.618;2022-12-18T05:00:13;-2.94;68.40
72650;SHT31;61467;50.674;4.618;2022-12-18T05:02:40;-3.01;68.54
72650;SHT31;61467;50.674;4.618;2022-12-18T05:05:08;-2.98;68.75
72650;SHT31;61467;50.674;4.618;2022-12-18T05:07:34;-2.92;68.78
72650;SHT31;61467;50.674;4.618;2022-12-18T05:10:07;-2.89;68.68
72650;SHT31;61467;50.674;4.618;2022-12-18T05:12:34;-2.89;68.43
72650;SHT31;61467;50.674;4.618;2022-12-18T05:15:21;-2.88;68.08
72650;SHT31;61467;50.674;4.618;2022-12-18T05:17:48;-3.12;68.58
72650;SHT31;61467;50.674;4.618;2022-12-18T05:20:14;-3.09;68.90
72650;SHT31;61467;50.674;4.618;2022-12-18T05:22:41;-3.04;68.38
72650;SHT31;61467;50.674;4.618;2022-12-18T05:25:09;-3.16;68.85
72650;SHT31;61467;50.674;4.618;2022-12-18T05:27:36;-3.35;69.25
72650;SHT31;61467;50.674;4.618;2022-12-18T05:30:03;-3.25;69.25
72650;SHT31;61467;50.674;4.618;2022-12-18T05:32:30;-3.29;69.07
72650;SHT31;61467;50.674;4.618;2022-12-18T05:34:57;-3.26;69.26
72650;SHT31;61467;50.674;4.618;2022-12-18T05:37:24;-3.31;69.17
72650;SHT31;61467;50.674;4.618;2022-12-18T05:39:50;-3.32;69.03
72650;SHT31;61467;50.674;4.618;2022-12-18T05:42:18;-3.26;69.07
72650;SHT31;61467;50.674;4.618;2022-12-18T05:44:45;-3.20;69.27
72650;SHT31;61467;50.674;4.618;2022-12-18T05:47:12;-3.16;69.05
72650;SHT31;61467;50.674;4.618;2022-12-18T05:49:39;-3.17;68.89
72650;SHT31;61467;50.674;4.618;2022-12-18T05:52:06;-3.17;68.78
72650;SHT31;61467;50.674;4.618;2022-12-18T05:54:33;-3.23;68.63
72650;SHT31;61467;50.674;4.618;2022-12-18T05:56:59;-3.22;68.64
72650;SHT31;61467;50.674;4.618;2022-12-18T05:59:27;-3.22;68.83
72650;SHT31;61467;50.674;4.618;2022-12-18T06:01:54;-3.17;68.74
72650;SHT31;61467;50.674;4.618;2022-12-18T06:04:21;-3.20;68.58
72650;SHT31;61467;50.674;4.618;2022-12-18T06:06:48;-3.17;68.60
72650;SHT31;61467;50.674;4.618;2022-12-18T06:09:14;-3.20;68.54
72650;SHT31;61467;50.674;4.618;2022-12-18T06:11:41;-3.15;68.73
72650;SHT31;61467;50.674;4.618;2022-12-18T06:14:08;-3.09;68.70
72650;SHT31;61467;50.674;4.618;2022-12-18T06:16:37;-3.04;68.37
72650;SHT31;61467;50.674;4.618;2022-12-18T06:19:05;-3.11;68.08
72650;SHT31;61467;50.674;4.618;2022-12-18T06:21:32;-3.12;68.28
72650;SHT31;61467;50.674;4.618;2022-12-18T06:24:00;-3.16;68.33
72650;SHT31;61467;50.674;4.618;2022-12-18T06:26:26;-3.09;68.59
72650;SHT31;61467;50.674;4.618;2022-12-18T06:28:53;-3.16;68.28
72650;SHT31;61467;50.674;4.618;2022-12-18T06:31:20;-3.16;68.20
72650;SHT31;61467;50.674;4.618;2022-12-18T06:33:48;-3.02;68.54
72650;SHT31;61467;50.674;4.618;2022-12-18T06:36:15;-2.99;68.44
72650;SHT31;61467;50.674;4.618;2022-12-18T06:38:43;-3.06;67.80
72650;SHT31;61467;50.674;4.618;2022-12-18T06:41:11;-3.02;67.53
72650;SHT31;61467;50.674;4.618;2022-12-18T06:43:38;-3.13;67.86
72650;SHT31;61467;50.674;4.618;2022-12-18T06:46:05;-2.99;68.09
72650;SHT31;61467;50.674;4.618;2022-12-18T06:48:32;-2.96;67.82
72650;SHT31;61467;50.674;4.618;2022-12-18T06:51:01;-2.89;67.76
72650;SHT31;61467;50.674;4.618;2022-12-18T06:53:28;-2.74;67.48
72650;SHT31;61467;50.674;4.618;2022-12-18T06:56:00;-2.71;67.58
72650;SHT31;61467;50.674;4.618;2022-12-18T06:58:27;-2.56;67.41
72650;SHT31;61467;50.674;4.618;2022-12-18T07:00:54;-2.51;66.95
72650;SHT31;61467;50.674;4.618;2022-12-18T07:03:25;-2.40;66.94
72650;SHT31;61467;50.674;4.618;2022-12-18T07:05:52;-2.34;67.01
72650;SHT31;61467;50.674;4.618;2022-12-18T07:08:20;-2.29;66.61
72650;SHT31;61467;50.674;4.618;2022-12-18T07:10:46;-2.34;66.94
72650;SHT31;61467;50.674;4.618;2022-12-18T07:13:14;-2.29;66.64
72650;SHT31;61467;50.674;4.618;2022-12-18T07:15:42;-2.29;66.71
72650;SHT31;61467;50.674;4.618;2022-12-18T07:18:10;-2.30;66.64
72650;SHT31;61467;50.674;4.618;2022-12-18T07:20:36;-2.32;66.55
72650;SHT31;61467;50.674;4.618;2022-12-18T07:23:03;-2.30;66.69
72650;SHT31;61467;50.674;4.618;2022-12-18T07:25:33;-2.29;66.86
72650;SHT31;61467;50.674;4.618;2022-12-18T07:28:00;-2.29;66.55
72650;SHT31;61467;50.674;4.618;2022-12-18T07:30:26;-2.25;66.47
72650;SHT31;61467;50.674;4.618;2022-12-18T07:32:53;-2.23;66.55
72650;SHT31;61467;50.674;4.618;2022-12-18T07:35:20;-2.28;67.06
72650;SHT31;61467;50.674;4.618;2022-12-18T07:37:47;-2.21;66.76
72650;SHT31;61467;50.674;4.618;2022-12-18T07:40:13;-2.25;67.35
72650;SHT31;61467;50.674;4.618;2022-12-18T07:42:41;-2.21;67.03
72650;SHT31;61467;50.674;4.618;2022-12-18T07:45:09;-2.23;66.92
72650;SHT31;61467;50.674;4.618;2022-12-18T07:47:36;-2.21;66.92
72650;SHT31;61467;50.674;4.618;2022-12-18T07:50:04;-2.18;66.91
72650;SHT31;61467;50.674;4.618;2022-12-18T07:52:31;-2.12;66.59
72650;SHT31;61467;50.674;4.618;2022-12-18T07:54:58;-2.12;66.51
72650;SHT31;61467;50.674;4.618;2022-12-18T07:57:24;-2.03;66.48
72650;SHT31;61467;50.674;4.618;2022-12-18T07:59:52;-2.03;66.57
72650;SHT31;61467;50.674;4.618;2022-12-18T08:02:19;-2.05;66.59
72650;SHT31;61467;50.674;4.618;2022-12-18T08:04:46;-1.98;66.53
72650;SHT31;61467;50.674;4.618;2022-12-18T08:07:13;-1.95;66.94
72650;SHT31;61467;50.674;4.618;2022-12-18T08:09:40;-1.88;66.20
72650;SHT31;61467;50.674;4.618;2022-12-18T08:12:07;-1.79;66.24
72650;SHT31;61467;50.674;4.618;2022-12-18T08:14:34;-1.78;66.41
72650;SHT31;61467;50.674;4.618;2022-12-18T08:17:02;-1.81;66.26
72650;SHT31;61467;50.674;4.618;2022-12-18T08:19:28;-1.74;66.05
72650;SHT31;61467;50.674;4.618;2022-12-18T08:21:55;-1.68;66.06
72650;SHT31;61467;50.674;4.618;2022-12-18T08:24:22;-1.65;66.06
72650;SHT31;61467;50.674;4.618;2022-12-18T08:26:49;-1.60;65.94
72650;SHT31;61467;50.674;4.618;2022-12-18T08:29:16;-1.58;65.98
72650;SHT31;61467;50.674;4.618;2022-12-18T08:31:42;-1.57;65.91
72650;SHT31;61467;50.674;4.618;2022-12-18T08:34:10;-1.52;66.22
72650;SHT31;61467;50.674;4.618;2022-12-18T08:36:37;-1.39;66.18
72650;SHT31;61467;50.674;4.618;2022-12-18T08:39:04;-1.31;65.90
72650;SHT31;61467;50.674;4.618;2022-12-18T08:41:30;-1.34;66.10
72650;SHT31;61467;50.674;4.618;2022-12-18T08:43:57;-1.24;66.00
72650;SHT31;61467;50.674;4.618;2022-12-18T08:46:42;-1.23;66.14
72650;SHT31;61467;50.674;4.618;2022-12-18T08:49:11;-1.12;66.54
72650;SHT31;61467;50.674;4.618;2022-12-18T08:51:38;-1.10;65.73
72650;SHT31;61467;50.674;4.618;2022-12-18T08:54:06;-1.02;65.77
72650;SHT31;61467;50.674;4.618;2022-12-18T08:56:33;-0.96;65.53
72650;SHT31;61467;50.674;4.618;2022-12-18T08:59:00;-1.00;65.49
72650;SHT31;61467;50.674;4.618;2022-12-18T09:01:27;-1.12;65.96
72650;SHT31;61467;50.674;4.618;2022-12-18T09:03:53;-0.99;66.18
72650;SHT31;61467;50.674;4.618;2022-12-18T09:06:22;-0.96;66.01
72650;SHT31;61467;50.674;4.618;2022-12-18T09:08:49;-0.82;65.63
72650;SHT31;61467;50.674;4.618;2022-12-18T09:11:20;-0.79;65.72
72650;SHT31;61467;50.674;4.618;2022-12-18T09:13:47;-0.71;65.29
72650;SHT31;61467;50.674;4.618;2022-12-18T09:16:14;-0.61;65.00
72650;SHT31;61467;50.674;4.618;2022-12-18T09:18:41;-0.62;65.14
72650;SHT31;61467;50.674;4.618;2022-12-18T09:21:09;-0.61;65.31
72650;SHT31;61467;50.674;4.618;2022-12-18T09:23:38;-0.59;64.92
72650;SHT31;61467;50.674;4.618;2022-12-18T09:26:05;-0.44;65.36
72650;SHT31;61467;50.674;4.618;2022-12-18T09:28:31;-0.38;65.10
72650;SHT31;61467;50.674;4.618;2022-12-18T09:30:58;-0.28;65.21
72650;SHT31;61467;50.674;4.618;2022-12-18T09:33:25;-0.17;64.91
72650;SHT31;61467;50.674;4.618;2022-12-18T09:35:51;-0.10;65.19
72650;SHT31;61467;50.674;4.618;2022-12-18T09:38:19;-0.03;64.56
72650;SHT31;61467;50.674;4.618;2022-12-18T09:40:49;0.00;63.97
72650;SHT31;61467;50.674;4.618;2022-12-18T09:43:20;0.00;64.46
72650;SHT31;61467;50.674;4.618;2022-12-18T09:45:53;0.04;64.04
72650;SHT31;61467;50.674;4.618;2022-12-18T09:48:23;-0.04;64.24
72650;SHT31;61467;50.674;4.618;2022-12-18T09:50:55;0.10;63.85
72650;SHT31;61467;50.674;4.618;2022-12-18T09:53:26;0.13;63.57
72650;SHT31;61467;50.674;4.618;2022-12-18T09:55:56;0.20;63.57
72650;SHT31;61467;50.674;4.618;2022-12-18T09:58:27;0.22;63.17
72650;SHT31;61467;50.674;4.618;2022-12-18T10:00:54;0.11;63.61
72650;SHT31;61467;50.674;4.618;2022-12-18T10:03:22;0.30;63.59
72650;SHT31;61467;50.674;4.618;2022-12-18T10:05:55;0.27;63.69
72650;SHT31;61467;50.674;4.618;2022-12-18T10:08:32;0.42;62.78
72650;SHT31;61467;50.674;4.618;2022-12-18T10:11:22;0.25;62.26
72650;SHT31;61467;50.674;4.618;2022-12-18T10:13:57;0.45;62.25
72650;SHT31;61467;50.674;4.618;2022-12-18T10:16:35;0.47;61.88
72650;SHT31;61467;50.674;4.618;2022-12-18T10:19:21;0.55;61.78
72650;SHT31;61467;50.674;4.618;2022-12-18T10:21:55;0.42;62.00
72650;SHT31;61467;50.674;4.618;2022-12-18T10:24:27;0.58;61.37
72650;SHT31;61467;50.674;4.618;2022-12-18T10:27:04;0.51;61.48
72650;SHT31;61467;50.674;4.618;2022-12-18T10:29:36;0.57;61.02
72650;SHT31;61467;50.674;4.618;2022-12-18T10:32:03;0.62;61.33
72650;SHT31;61467;50.674;4.618;2022-12-18T10:34:30;0.59;61.55
72650;SHT31;61467;50.674;4.618;2022-12-18T10:37:00;0.57;61.43
72650;SHT31;61467;50.674;4.618;2022-12-18T10:39:28;0.72;60.31
72650;SHT31;61467;50.674;4.618;2022-12-18T10:42:11;0.86;60.62
72650;SHT31;61467;50.674;4.618;2022-12-18T10:44:41;0.85;59.68
72650;SHT31;61467;50.674;4.618;2022-12-18T10:47:12;0.78;60.22
72650;SHT31;61467;50.674;4.618;2022-12-18T10:49:46;0.93;59.46
72650;SHT31;61467;50.674;4.618;2022-12-18T10:52:16;0.88;59.66
72650;SHT31;61467;50.674;4.618;2022-12-18T10:54:48;0.90;60.16
72650;SHT31;61467;50.674;4.618;2022-12-18T10:57:29;1.12;59.30
72650;SHT31;61467;50.674;4.618;2022-12-18T10:59:58;1.10;59.30
72650;SHT31;61467;50.674;4.618;2022-12-18T11:02:28;1.04;58.76
72650;SHT31;61467;50.674;4.618;2022-12-18T11:04:59;1.12;58.48
72650;SHT31;61467;50.674;4.618;2022-12-18T11:07:47;1.23;58.44
72650;SHT31;61467;50.674;4.618;2022-12-18T11:10:16;1.19;59.17
72650;SHT31;61467;50.674;4.618;2022-12-18T11:12:44;1.10;58.59
72650;SHT31;61467;50.674;4.618;2022-12-18T11:15:15;1.27;58.36
72650;SHT31;61467;50.674;4.618;2022-12-18T11:17:42;1.34;59.19
72650;SHT31;61467;50.674;4.618;2022-12-18T11:20:21;1.19;58.80
72650;SHT31;61467;50.674;4.618;2022-12-18T11:22:57;1.41;58.32
72650;SHT31;61467;50.674;4.618;2022-12-18T11:25:25;1.43;58.49
72650;SHT31;61467;50.674;4.618;2022-12-18T11:27:55;1.50;58.77
72650;SHT31;61467;50.674;4.618;2022-12-18T11:30:25;1.47;59.07
72650;SHT31;61467;50.674;4.618;2022-12-18T11:32:55;1.41;58.27
72650;SHT31;61467;50.674;4.618;2022-12-18T11:35:30;1.41;59.33
72650;SHT31;61467;50.674;4.618;2022-12-18T11:38:04;1.44;59.14
72650;SHT31;61467;50.674;4.618;2022-12-18T11:40:35;1.47;58.86
72650;SHT31;61467;50.674;4.618;2022-12-18T11:43:10;1.54;58.77
72650;SHT31;61467;50.674;4.618;2022-12-18T11:45:41;1.48;59.44
72650;SHT31;61467;50.674;4.618;2022-12-18T11:48:14;1.60;59.30
72650;SHT31;61467;50.674;4.618;2022-12-18T11:50:46;1.50;59.64
72650;SHT31;61467;50.674;4.618;2022-12-18T11:53:15;1.40;59.73
72650;SHT31;61467;50.674;4.618;2022-12-18T11:55:49;1.48;59.74
72650;SHT31;61467;50.674;4.618;2022-12-18T11:58:27;1.58;60.50
72650;SHT31;61467;50.674;4.618;2022-12-18T12:01:01;1.54;61.31
72650;SHT31;61467;50.674;4.618;2022-12-18T12:03:44;1.61;60.67
72650;SHT31;61467;50.674;4.618;2022-12-18T12:06:19;1.58;60.67
72650;SHT31;61467;50.674;4.618;2022-12-18T12:09:04;1.43;61.77
72650;SHT31;61467;50.674;4.618;2022-12-18T12:11:41;1.51;61.59
72650;SHT31;61467;50.674;4.618;2022-12-18T12:14:34;1.57;61.28
72650;SHT31;61467;50.674;4.618;2022-12-18T12:17:09;1.52;60.94
72650;SHT31;61467;50.674;4.618;2022-12-18T12:19:46;1.61;61.38
72650;SHT31;61467;50.674;4.618;2022-12-18T12:22:20;1.51;60.94
72650;SHT31;61467;50.674;4.618;2022-12-18T12:24:58;1.51;61.21
72650;SHT31;61467;50.674;4.618;2022-12-18T12:27:36;1.68;60.54
72650;SHT31;61467;50.674;4.618;2022-12-18T12:30:08;1.57;61.36
72650;SHT31;61467;50.674;4.618;2022-12-18T12:32:45;1.44;61.68
72650;SHT31;61467;50.674;4.618;2022-12-18T12:35:24;1.60;61.34
72650;SHT31;61467;50.674;4.618;2022-12-18T12:38:03;1.55;61.68
72650;SHT31;61467;50.674;4.618;2022-12-18T12:40:33;1.52;61.45
72650;SHT31;61467;50.674;4.618;2022-12-18T12:43:15;1.70;61.92
72650;SHT31;61467;50.674;4.618;2022-12-18T12:45:49;1.82;61.13
72650;SHT31;61467;50.674;4.618;2022-12-18T12:48:23;1.91;61.32
72650;SHT31;61467;50.674;4.618;2022-12-18T12:50:53;1.85;61.24
72650;SHT31;61467;50.674;4.618;2022-12-18T12:53:25;1.83;61.74
72650;SHT31;61467;50.674;4.618;2022-12-18T12:55:53;1.81;62.22
72650;SHT31;61467;50.674;4.618;2022-12-18T12:58:28;1.88;61.87
72650;SHT31;61467;50.674;4.618;2022-12-18T13:01:04;1.92;61.82
72650;SHT31;61467;50.674;4.618;2022-12-18T13:03:44;1.67;61.90
72650;SHT31;61467;50.674;4.618;2022-12-18T13:06:18;1.78;61.90
72650;SHT31;61467;50.674;4.618;2022-12-18T13:08:55;1.74;62.11
72650;SHT31;61467;50.674;4.618;2022-12-18T13:11:35;1.62;62.40
72650;SHT31;61467;50.674;4.618;2022-12-18T13:14:27;1.48;62.68
72650;SHT31;61467;50.674;4.618;2022-12-18T13:17:21;1.60;62.51
72650;SHT31;61467;50.674;4.618;2022-12-18T13:20:06;1.58;62.60
72650;SHT31;61467;50.674;4.618;2022-12-18T13:22:36;1.62;62.24
72650;SHT31;61467;50.674;4.618;2022-12-18T13:25:21;1.62;62.29
72650;SHT31;61467;50.674;4.618;2022-12-18T13:28:09;1.64;62.27
72650;SHT31;61467;50.674;4.618;2022-12-18T13:30:46;1.58;62.48
72650;SHT31;61467;50.674;4.618;2022-12-18T13:33:39;1.64;62.18
72650;SHT31;61467;50.674;4.618;2022-12-18T13:36:17;1.64;62.06
72650;SHT31;61467;50.674;4.618;2022-12-18T13:41:52;1.71;62.02
72650;SHT31;61467;50.674;4.618;2022-12-18T13:44:31;1.52;62.76
72650;SHT31;61467;50.674;4.618;2022-12-18T13:46:59;1.58;62.17
72650;SHT31;61467;50.674;4.618;2022-12-18T13:49:36;1.58;62.35
72650;SHT31;61467;50.674;4.618;2022-12-18T13:52:15;1.36;62.78
72650;SHT31;61467;50.674;4.618;2022-12-18T13:54:42;1.44;62.82
72650;SHT31;61467;50.674;4.618;2022-12-18T13:57:26;1.50;62.60
72650;SHT31;61467;50.674;4.618;2022-12-18T13:59:53;1.39;63.58
72650;SHT31;61467;50.674;4.618;2022-12-18T14:02:22;1.50;62.85
72650;SHT31;61467;50.674;4.618;2022-12-18T14:04:51;1.47;62.88
72650;SHT31;61467;50.674;4.618;2022-12-18T14:07:21;1.48;63.53
72650;SHT31;61467;50.674;4.618;2022-12-18T14:09:50;1.62;63.21
72650;SHT31;61467;50.674;4.618;2022-12-18T14:12:20;1.52;63.28
72650;SHT31;61467;50.674;4.618;2022-12-18T14:15:09;1.60;63.23
72650;SHT31;61467;50.674;4.618;2022-12-18T14:17:42;1.57;63.31
72650;SHT31;61467;50.674;4.618;2022-12-18T14:20:14;1.79;62.84
72650;SHT31;61467;50.674;4.618;2022-12-18T14:22:43;1.82;62.94
72650;SHT31;61467;50.674;4.618;2022-12-18T14:25:17;1.85;62.81
72650;SHT31;61467;50.674;4.618;2022-12-18T14:27:46;1.88;62.71
72650;SHT31;61467;50.674;4.618;2022-12-18T14:30:29;1.89;62.36
72650;SHT31;61467;50.674;4.618;2022-12-18T14:33:00;1.92;62.85
72650;SHT31;61467;50.674;4.618;2022-12-18T14:35:32;1.89;62.73
72650;SHT31;61467;50.674;4.618;2022-12-18T14:38:21;1.86;62.61
72650;SHT31;61467;50.674;4.618;2022-12-18T14:40:52;1.86;62.97
72650;SHT31;61467;50.674;4.618;2022-12-18T14:43:20;1.98;62.70
72650;SHT31;61467;50.674;4.618;2022-12-18T14:45:47;1.82;62.71
72650;SHT31;61467;50.674;4.618;2022-12-18T14:48:17;1.86;63.26
72650;SHT31;61467;50.674;4.618;2022-12-18T14:50:55;1.82;62.89
72650;SHT31;61467;50.674;4.618;2022-12-18T14:53:26;1.88;62.95
72650;SHT31;61467;50.674;4.618;2022-12-18T14:55:54;1.78;63.34
72650;SHT31;61467;50.674;4.618;2022-12-18T14:58:21;1.77;63.85
72650;SHT31;61467;50.674;4.618;2022-12-18T15:00:48;1.70;63.35
72650;SHT31;61467;50.674;4.618;2022-12-18T15:03:18;1.75;63.41
72650;SHT31;61467;50.674;4.618;2022-12-18T15:05:47;1.70;63.20
72650;SHT31;61467;50.674;4.618;2022-12-18T15:08:34;1.79;62.81
72650;SHT31;61467;50.674;4.618;2022-12-18T15:11:02;1.68;63.00
72650;SHT31;61467;50.674;4.618;2022-12-18T15:13:29;1.67;63.30
72650;SHT31;61467;50.674;4.618;2022-12-18T15:15:57;1.70;63.22
72650;SHT31;61467;50.674;4.618;2022-12-18T15:18:30;1.50;63.57
72650;SHT31;61467;50.674;4.618;2022-12-18T15:21:07;1.36;63.92
72650;SHT31;61467;50.674;4.618;2022-12-18T15:23:36;1.39;63.88
72650;SHT31;61467;50.674;4.618;2022-12-18T15:26:06;1.50;64.08
72650;SHT31;61467;50.674;4.618;2022-12-18T15:28:35;1.57;62.90
72650;SHT31;61467;50.674;4.618;2022-12-18T15:31:06;1.46;63.48
72650;SHT31;61467;50.674;4.618;2022-12-18T15:33:59;1.48;63.28
72650;SHT31;61467;50.674;4.618;2022-12-18T15:36:29;1.51;62.74
72650;SHT31;61467;50.674;4.618;2022-12-18T15:38:57;1.48;62.95
72650;SHT31;61467;50.674;4.618;2022-12-18T15:41:24;1.58;62.63
72650;SHT31;61467;50.674;4.618;2022-12-18T15:43:52;1.48;62.08
72650;SHT31;61467;50.674;4.618;2022-12-18T15:46:19;1.39;62.77
72650;SHT31;61467;50.674;4.618;2022-12-18T15:48:47;1.46;62.12
72650;SHT31;61467;50.674;4.618;2022-12-18T15:51:17;1.51;62.03
72650;SHT31;61467;50.674;4.618;2022-12-18T15:53:47;1.60;61.47
72650;SHT31;61467;50.674;4.618;2022-12-18T15:56:15;1.71;61.18
72650;SHT31;61467;50.674;4.618;2022-12-18T15:59:09;1.67;61.39
72650;SHT31;61467;50.674;4.618;2022-12-18T16:01:37;1.67;60.97